createdAt,value
2016-05-29T00:00:20.213Z,52.65
2016-05-29T00:01:20.248Z,52.94
2016-05-29T00:02:20.282Z,52.94
2016-05-29T00:03:20.300Z,53.03
2016-05-29T00:04:20.162Z,52.75
2016-05-29T00:05:21.102Z,52.84
2016-05-29T00:06:20.371Z,52.94
2016-05-29T00:07:20.248Z,52.75
2016-05-29T00:08:20.423Z,52.75
2016-05-29T00:09:20.457Z,52.84
2016-05-29T00:10:20.475Z,52.94
2016-05-29T00:11:20.509Z,52.94
2016-05-29T00:12:20.527Z,52.84
2016-05-29T00:13:20.562Z,52.84
2016-05-29T00:14:20.580Z,52.94
2016-05-29T00:15:20.628Z,52.65
2016-05-29T00:16:20.647Z,52.84
2016-05-29T00:17:20.666Z,52.84
2016-05-29T00:18:20.684Z,52.84
2016-05-29T00:19:20.703Z,52.65
2016-05-29T00:20:20.736Z,52.65
2016-05-29T00:21:20.755Z,52.65
2016-05-29T00:22:20.773Z,52.84
2016-05-29T00:23:20.807Z,53.03
2016-05-29T00:24:20.841Z,52.84
2016-05-29T00:25:20.860Z,52.75
2016-05-29T00:26:20.877Z,53.32
2016-05-29T00:27:20.911Z,53.58
2016-05-29T00:28:20.929Z,53.52
2016-05-29T00:29:20.963Z,53.58
2016-05-29T00:30:20.982Z,53.52
2016-05-29T00:31:21.001Z,53.58
2016-05-29T00:32:20.878Z,53.32
2016-05-29T00:33:21.052Z,53.39
2016-05-29T00:34:20.930Z,53.3
2016-05-29T00:35:21.715Z,53.49
2016-05-29T00:36:21.139Z,53.3
2016-05-29T00:37:21.173Z,53.2
2016-05-29T00:38:21.034Z,53.2
2016-05-29T00:39:21.209Z,53.11
2016-05-29T00:40:21.228Z,53.2
2016-05-29T00:41:21.262Z,53.49
2016-05-29T00:42:21.280Z,53.2
2016-05-29T00:43:21.314Z,53.49
2016-05-29T00:44:21.348Z,53.68
2016-05-29T00:45:21.366Z,53.2
2016-05-29T00:46:21.384Z,53.3
2016-05-29T00:47:21.419Z,53.68
2016-05-29T00:48:21.436Z,53.49
2016-05-29T00:49:21.470Z,53.68
2016-05-29T00:50:21.598Z,53.39
2016-05-29T00:51:21.507Z,53.42
2016-05-29T00:52:21.542Z,53.49
2016-05-29T00:53:21.560Z,53.11
2016-05-29T00:54:21.594Z,53.42
2016-05-29T00:55:21.611Z,53.49
2016-05-29T00:56:21.646Z,53.39
2016-05-29T00:57:21.663Z,53.3
2016-05-29T00:58:21.699Z,53.3
2016-05-29T00:59:21.716Z,53.11
2016-05-29T01:00:21.734Z,53.87
2016-05-29T01:01:21.769Z,53.39
2016-05-29T01:02:21.787Z,53.39
2016-05-29T01:03:21.821Z,53.78
2016-05-29T01:04:21.839Z,53.39
2016-05-29T01:05:21.763Z,53.42
2016-05-29T01:06:21.735Z,53.39
2016-05-29T01:07:21.910Z,53.39
2016-05-29T01:08:21.943Z,53.13
2016-05-29T01:09:21.962Z,53.61
2016-05-29T01:10:21.995Z,53.58
2016-05-29T01:11:21.873Z,53.39
2016-05-29T01:12:22.048Z,53.39
2016-05-29T01:13:21.909Z,53.2
2016-05-29T01:14:22.100Z,53.39
2016-05-29T01:15:22.119Z,53.2
2016-05-29T01:16:22.153Z,53.52
2016-05-29T01:17:22.170Z,53.39
2016-05-29T01:18:22.189Z,53.61
2016-05-29T01:19:22.223Z,53.8
2016-05-29T01:20:22.460Z,53.39
2016-05-29T01:21:22.291Z,53.9
2016-05-29T01:22:22.294Z,53.68
2016-05-29T01:23:22.327Z,53.61
2016-05-29T01:24:22.346Z,53.49
2016-05-29T01:25:22.380Z,53.39
2016-05-29T01:26:22.399Z,53.42
2016-05-29T01:27:22.416Z,53.58
2016-05-29T01:28:22.450Z,53.78
2016-05-29T01:29:22.469Z,53.49
2016-05-29T01:30:22.503Z,53.58
2016-05-29T01:31:22.521Z,53.58
2016-05-29T01:32:22.383Z,53.49
2016-05-29T01:33:22.574Z,53.58
2016-05-29T01:34:22.591Z,53.58
2016-05-29T01:35:23.048Z,53.61
2016-05-29T01:36:23.316Z,53.87
2016-05-29T01:37:22.506Z,53.58
2016-05-29T01:38:22.540Z,53.97
2016-05-29T01:39:22.730Z,53.68
2016-05-29T01:40:22.764Z,53.68
2016-05-29T01:41:22.782Z,54.06
2016-05-29T01:42:22.801Z,53.68
2016-05-29T01:43:22.819Z,53.78
2016-05-29T01:44:22.853Z,54.35
2016-05-29T01:45:22.871Z,54.06
2016-05-29T01:46:22.906Z,54.35
2016-05-29T01:47:22.939Z,54.25
2016-05-29T01:48:22.942Z,54.25
2016-05-29T01:49:22.975Z,54.16
2016-05-29T01:50:23.166Z,53.68
2016-05-29T01:51:22.872Z,54.06
2016-05-29T01:52:23.046Z,53.97
2016-05-29T01:53:23.080Z,54.35
2016-05-29T01:54:23.114Z,54.35
2016-05-29T01:55:23.132Z,54.16
2016-05-29T01:56:23.150Z,53.97
2016-05-29T01:57:23.185Z,54.06
2016-05-29T01:58:23.202Z,54.25
2016-05-29T01:59:23.238Z,54.16
2016-05-29T02:00:23.255Z,54.06
2016-05-29T02:01:23.274Z,53.97
2016-05-29T02:02:23.135Z,54.35
2016-05-29T02:03:23.169Z,53.97
2016-05-29T02:04:23.360Z,54.35
2016-05-29T02:05:23.379Z,54.06
2016-05-29T02:06:23.428Z,54.25
2016-05-29T02:07:23.429Z,53.97
2016-05-29T02:08:23.465Z,54.16
2016-05-29T02:09:23.483Z,53.68
2016-05-29T02:10:23.501Z,54.35
2016-05-29T02:11:23.534Z,54.35
2016-05-29T02:12:23.554Z,54.35
2016-05-29T02:13:23.571Z,54.45
2016-05-29T02:14:23.606Z,54.25
2016-05-29T02:15:23.623Z,54.16
2016-05-29T02:16:23.658Z,54.25
2016-05-29T02:17:23.676Z,54.06
2016-05-29T02:18:23.695Z,54.16
2016-05-29T02:19:23.728Z,54.16
2016-05-29T02:20:23.903Z,54.16
2016-05-29T02:21:23.780Z,54.16
2016-05-29T02:22:23.658Z,54.06
2016-05-29T02:23:23.833Z,54.45
2016-05-29T02:24:23.850Z,54.06
2016-05-29T02:25:23.885Z,54.25
2016-05-29T02:26:23.903Z,53.97
2016-05-29T02:27:23.938Z,54.06
2016-05-29T02:28:23.955Z,53.97
2016-05-29T02:29:23.818Z,54.06
2016-05-29T02:30:24.008Z,54.06
2016-05-29T02:31:24.026Z,54.16
2016-05-29T02:32:24.044Z,53.97
2016-05-29T02:33:24.079Z,54.64
2016-05-29T02:34:24.097Z,53.97
2016-05-29T02:35:24.130Z,54.16
2016-05-29T02:36:24.165Z,54.06
2016-05-29T02:37:24.182Z,53.97
2016-05-29T02:38:24.045Z,54.35
2016-05-29T02:39:24.235Z,54.25
2016-05-29T02:40:24.253Z,54.35
2016-05-29T02:41:24.272Z,54.16
2016-05-29T02:42:24.306Z,54.35
2016-05-29T02:43:24.340Z,53.68
2016-05-29T02:44:24.358Z,53.68
2016-05-29T02:45:24.376Z,54.25
2016-05-29T02:46:24.410Z,53.97
2016-05-29T02:47:24.428Z,53.68
2016-05-29T02:48:24.463Z,54.45
2016-05-29T02:49:24.481Z,54.35
2016-05-29T02:50:24.359Z,54.16
2016-05-29T02:51:24.548Z,54.16
2016-05-29T02:52:24.550Z,54.16
2016-05-29T02:53:24.570Z,54.16
2016-05-29T02:54:24.603Z,54.06
2016-05-29T02:55:24.638Z,54.25
2016-05-29T02:56:24.655Z,54.25
2016-05-29T02:57:24.690Z,54.25
2016-05-29T02:58:24.708Z,54.16
2016-05-29T02:59:24.726Z,54.06
2016-05-29T03:00:24.761Z,54.25
2016-05-29T03:01:24.779Z,54.06
2016-05-29T03:02:24.797Z,54.06
2016-05-29T03:03:24.674Z,54.06
2016-05-29T03:04:24.865Z,54.16
2016-05-29T03:05:24.899Z,54.25
2016-05-29T03:06:25.245Z,54.06
2016-05-29T03:07:24.935Z,54.16
2016-05-29T03:08:24.954Z,54.16
2016-05-29T03:09:24.988Z,54.06
2016-05-29T03:10:25.006Z,54.06
2016-05-29T03:11:25.024Z,54.25
2016-05-29T03:12:25.059Z,54.16
2016-05-29T03:13:25.092Z,54.25
2016-05-29T03:14:25.110Z,54.25
2016-05-29T03:15:25.145Z,54.06
2016-05-29T03:16:25.163Z,54.25
2016-05-29T03:17:25.197Z,54.16
2016-05-29T03:18:25.214Z,54.25
2016-05-29T03:19:25.233Z,54.25
2016-05-29T03:20:25.251Z,53.97
2016-05-29T03:21:25.301Z,54.16
2016-05-29T03:22:25.319Z,54.16
2016-05-29T03:23:25.339Z,54.16
2016-05-29T03:24:25.356Z,54.16
2016-05-29T03:25:25.374Z,54.16
2016-05-29T03:26:25.409Z,53.97
2016-05-29T03:27:25.427Z,54.06
2016-05-29T03:28:25.461Z,54.16
2016-05-29T03:29:25.479Z,54.25
2016-05-29T03:30:25.513Z,54.16
2016-05-29T03:31:25.531Z,53.78
2016-05-29T03:32:25.565Z,54.25
2016-05-29T03:33:25.583Z,54.35
2016-05-29T03:34:25.602Z,54.25
2016-05-29T03:35:25.838Z,54.35
2016-05-29T03:36:25.935Z,54.45
2016-05-29T03:37:25.688Z,54.06
2016-05-29T03:38:25.707Z,54.35
2016-05-29T03:39:25.740Z,53.97
2016-05-29T03:40:25.759Z,54.25
2016-05-29T03:41:25.777Z,54.25
2016-05-29T03:42:25.810Z,54.35
2016-05-29T03:43:25.829Z,54.25
2016-05-29T03:44:25.863Z,54.25
2016-05-29T03:45:25.881Z,54.06
2016-05-29T03:46:25.915Z,54.06
2016-05-29T03:47:25.934Z,54.16
2016-05-29T03:48:25.967Z,54.16
2016-05-29T03:49:25.986Z,54.16
2016-05-29T03:50:26.020Z,54.35
2016-05-29T03:51:25.882Z,54.25
2016-05-29T03:52:26.072Z,54.25
2016-05-29T03:53:26.090Z,54.25
2016-05-29T03:54:26.109Z,54.16
2016-05-29T03:55:26.127Z,54.35
2016-05-29T03:56:26.161Z,54.25
2016-05-29T03:57:26.180Z,54.25
2016-05-29T03:58:26.213Z,54.45
2016-05-29T03:59:26.231Z,54.35
2016-05-29T04:00:26.265Z,53.97
2016-05-29T04:01:26.284Z,53.97
2016-05-29T04:02:26.302Z,53.97
2016-05-29T04:03:26.335Z,54.16
2016-05-29T04:04:26.214Z,54.25
2016-05-29T04:05:26.264Z,54.25
2016-05-29T04:06:27.391Z,54.06
2016-05-29T04:07:26.456Z,53.87
2016-05-29T04:08:26.303Z,54.06
2016-05-29T04:09:26.493Z,53.97
2016-05-29T04:10:26.510Z,54.16
2016-05-29T04:11:26.529Z,54.06
2016-05-29T04:12:26.563Z,54.55
2016-05-29T04:13:26.582Z,54.45
2016-05-29T04:14:26.615Z,53.68
2016-05-29T04:15:26.634Z,53.97
2016-05-29T04:16:26.668Z,53.87
2016-05-29T04:17:26.529Z,53.97
2016-05-29T04:18:26.548Z,54.16
2016-05-29T04:19:26.739Z,54.06
2016-05-29T04:20:26.757Z,54.16
2016-05-29T04:21:26.790Z,54.16
2016-05-29T04:22:26.809Z,54.25
2016-05-29T04:23:26.843Z,54.06
2016-05-29T04:24:26.705Z,53.97
2016-05-29T04:25:26.895Z,54.16
2016-05-29T04:26:26.913Z,54.06
2016-05-29T04:27:26.932Z,54.06
2016-05-29T04:28:26.966Z,54.25
2016-05-29T04:29:26.983Z,54.16
2016-05-29T04:30:27.018Z,54.06
2016-05-29T04:31:27.036Z,54.25
2016-05-29T04:32:27.070Z,54.06
2016-05-29T04:33:27.088Z,53.7
2016-05-29T04:34:27.108Z,54.28
2016-05-29T04:35:27.141Z,54.06
2016-05-29T04:36:27.347Z,54.16
2016-05-29T04:37:27.193Z,53.68
2016-05-29T04:38:27.210Z,53.68
2016-05-29T04:39:27.246Z,54.09
2016-05-29T04:40:27.107Z,54
2016-05-29T04:41:27.298Z,54
2016-05-29T04:42:27.159Z,53.7
2016-05-29T04:43:27.335Z,53.52
2016-05-29T04:44:27.212Z,53.32
2016-05-29T04:45:27.386Z,53.52
2016-05-29T04:46:27.421Z,53.23
2016-05-29T04:47:27.439Z,53.32
2016-05-29T04:48:27.473Z,53.32
2016-05-29T04:49:27.491Z,53.32
2016-05-29T04:50:27.525Z,53.32
2016-05-29T04:51:27.840Z,52.94
2016-05-29T04:52:27.561Z,52.65
2016-05-29T04:53:27.595Z,52.84
2016-05-29T04:54:27.629Z,52.84
2016-05-29T04:55:27.648Z,53.03
2016-05-29T04:56:27.666Z,52.94
2016-05-29T04:57:27.684Z,52.94
2016-05-29T04:58:27.562Z,52.94
2016-05-29T04:59:27.752Z,52.65
2016-05-29T05:00:27.770Z,52.55
2016-05-29T05:01:27.805Z,52.48
2016-05-29T05:02:27.823Z,52.26
2016-05-29T05:03:27.685Z,52.48
2016-05-29T05:04:27.860Z,52.36
2016-05-29T05:05:27.893Z,52.68
2016-05-29T05:06:27.771Z,51.91
2016-05-29T05:07:27.946Z,52
2016-05-29T05:08:27.979Z,52.1
2016-05-29T05:09:27.842Z,52.1
2016-05-29T05:10:28.016Z,51.91
2016-05-29T05:11:28.050Z,51.81
2016-05-29T05:12:28.068Z,52.1
2016-05-29T05:13:28.118Z,52.1
2016-05-29T05:14:28.121Z,52.2
2016-05-29T05:15:28.154Z,51.91
2016-05-29T05:16:28.174Z,51.91
2016-05-29T05:17:28.207Z,51.91
2016-05-29T05:18:28.226Z,51.72
2016-05-29T05:19:28.259Z,51.33
2016-05-29T05:20:28.464Z,51.43
2016-05-29T05:21:28.687Z,51.62
2016-05-29T05:22:28.329Z,51.43
2016-05-29T05:23:28.348Z,51.53
2016-05-29T05:24:28.381Z,51.72
2016-05-29T05:25:28.401Z,51.72
2016-05-29T05:26:28.278Z,51.53
2016-05-29T05:27:28.452Z,51.43
2016-05-29T05:28:28.487Z,51.62
2016-05-29T05:29:28.505Z,51.43
2016-05-29T05:30:28.523Z,51.33
2016-05-29T05:31:28.557Z,51.43
2016-05-29T05:32:28.575Z,51.33
2016-05-29T05:33:28.609Z,51.53
2016-05-29T05:34:28.643Z,50.95
2016-05-29T05:35:28.505Z,51.04
2016-05-29T05:36:28.696Z,51.43
2016-05-29T05:37:28.714Z,51.23
2016-05-29T05:38:28.732Z,51.43
2016-05-29T05:39:28.766Z,51.23
2016-05-29T05:40:28.785Z,50.76
2016-05-29T05:41:28.802Z,50.95
2016-05-29T05:42:28.837Z,51.04
2016-05-29T05:43:28.870Z,50.87
2016-05-29T05:44:28.888Z,50.76
2016-05-29T05:45:28.923Z,50.76
2016-05-29T05:46:28.941Z,50.87
2016-05-29T05:47:28.975Z,50.3
2016-05-29T05:48:28.993Z,50.2
2016-05-29T05:49:29.012Z,50.2
2016-05-29T05:50:29.045Z,50.2
2016-05-29T05:51:29.565Z,50.1
2016-05-29T05:52:29.098Z,50.49
2016-05-29T05:53:29.116Z,50.59
2016-05-29T05:54:29.151Z,50.1
2016-05-29T05:55:29.168Z,50.3
2016-05-29T05:56:29.202Z,49.82
2016-05-29T05:57:29.220Z,49.84
2016-05-29T05:58:29.255Z,49.27
2016-05-29T05:59:29.289Z,49.55
2016-05-29T06:00:29.306Z,49.55
2016-05-29T06:01:29.325Z,48.69
2016-05-29T06:02:29.202Z,48.88
2016-05-29T06:03:29.378Z,49.07
2016-05-29T06:04:29.411Z,48.61
2016-05-29T06:05:29.430Z,48.88
2016-05-29T06:06:29.916Z,48.52
2016-05-29T06:07:29.498Z,49.1
2016-05-29T06:08:29.516Z,48.52
2016-05-29T06:09:29.534Z,48.52
2016-05-29T06:10:29.583Z,48.52
2016-05-29T06:11:29.602Z,48.25
2016-05-29T06:12:29.621Z,48.06
2016-05-29T06:13:29.654Z,47.49
2016-05-29T06:14:29.673Z,47
2016-05-29T06:15:29.707Z,47.19
2016-05-29T06:16:29.724Z,46.42
2016-05-29T06:17:29.759Z,46.23
2016-05-29T06:18:29.793Z,46.42
2016-05-29T06:19:29.812Z,46.42
2016-05-29T06:20:29.845Z,45.84
2016-05-29T06:21:29.863Z,45.75
2016-05-29T06:22:29.897Z,45.84
2016-05-29T06:23:29.759Z,45.77
2016-05-29T06:24:29.950Z,45.87
2016-05-29T06:25:29.811Z,45.87
2016-05-29T06:26:30.001Z,45.58
2016-05-29T06:27:29.895Z,45.1
2016-05-29T06:28:30.054Z,45.39
2016-05-29T06:29:30.088Z,45.29
2016-05-29T06:30:30.122Z,45.2
2016-05-29T06:31:30.140Z,45.29
2016-05-29T06:32:30.159Z,45.29
2016-05-29T06:33:30.192Z,45.29
2016-05-29T06:34:30.210Z,45.2
2016-05-29T06:35:30.089Z,45.48
2016-05-29T06:36:30.841Z,45.2
2016-05-29T06:37:30.297Z,45.48
2016-05-29T06:38:30.330Z,45.48
2016-05-29T06:39:30.366Z,45.48
2016-05-29T06:40:30.383Z,45.58
2016-05-29T06:41:30.401Z,45.48
2016-05-29T06:42:30.436Z,45.58
2016-05-29T06:43:30.454Z,45.48
2016-05-29T06:44:30.331Z,45.29
2016-05-29T06:45:30.537Z,45.29
2016-05-29T06:46:30.541Z,45.48
2016-05-29T06:47:30.574Z,45.48
2016-05-29T06:48:30.607Z,45.48
2016-05-29T06:49:30.626Z,45.39
2016-05-29T06:50:30.659Z,45.48
2016-05-29T06:51:30.538Z,45.48
2016-05-29T06:52:30.712Z,45.39
2016-05-29T06:53:30.731Z,45.29
2016-05-29T06:54:30.765Z,45.39
2016-05-29T06:55:30.784Z,45.48
2016-05-29T06:56:30.817Z,45.46
2016-05-29T06:57:30.850Z,45.36
2016-05-29T06:58:30.870Z,45.29
2016-05-29T06:59:30.887Z,45.39
2016-05-29T07:00:30.922Z,45.39
2016-05-29T07:01:30.939Z,45.1
2016-05-29T07:02:30.973Z,45
2016-05-29T07:03:31.008Z,45.2
2016-05-29T07:04:31.025Z,45.2
2016-05-29T07:05:31.060Z,45.29
2016-05-29T07:06:31.078Z,45.39
2016-05-29T07:07:31.112Z,45.29
2016-05-29T07:08:31.130Z,45.2
2016-05-29T07:09:31.164Z,44.98
2016-05-29T07:10:31.042Z,44.98
2016-05-29T07:11:31.216Z,45.48
2016-05-29T07:12:31.250Z,45.48
2016-05-29T07:13:31.269Z,45.97
2016-05-29T07:14:31.302Z,45.75
2016-05-29T07:15:31.321Z,45.75
2016-05-29T07:16:31.355Z,45.75
2016-05-29T07:17:31.388Z,45.84
2016-05-29T07:18:31.407Z,45.56
2016-05-29T07:19:31.285Z,45.65
2016-05-29T07:20:31.476Z,45.46
2016-05-29T07:21:31.978Z,45.36
2016-05-29T07:22:31.527Z,45.94
2016-05-29T07:23:31.545Z,45.94
2016-05-29T07:24:31.579Z,45.46
2016-05-29T07:25:31.598Z,45.46
2016-05-29T07:26:31.632Z,45.36
2016-05-29T07:27:31.650Z,45.27
2016-05-29T07:28:31.684Z,45.84
2016-05-29T07:29:31.718Z,45.27
2016-05-29T07:30:31.736Z,45.46
2016-05-29T07:31:31.770Z,45.27
2016-05-29T07:32:31.789Z,45.84
2016-05-29T07:33:31.822Z,45.75
2016-05-29T07:34:31.857Z,45.84
2016-05-29T07:35:31.891Z,45.75
2016-05-29T07:36:31.894Z,45.84
2016-05-29T07:37:31.771Z,45.84
2016-05-29T07:38:31.944Z,45.94
2016-05-29T07:39:31.980Z,45.94
2016-05-29T07:40:31.872Z,45.84
2016-05-29T07:41:32.032Z,45.46
2016-05-29T07:42:32.065Z,45.94
2016-05-29T07:43:32.084Z,45.94
2016-05-29T07:44:32.118Z,45.75
2016-05-29T07:45:32.135Z,45.75
2016-05-29T07:46:32.171Z,45.84
2016-05-29T07:47:32.204Z,45.94
2016-05-29T07:48:32.222Z,45.84
2016-05-29T07:49:32.256Z,45.65
2016-05-29T07:50:32.274Z,46.04
2016-05-29T07:51:32.402Z,45.84
2016-05-29T07:52:32.342Z,45.84
2016-05-29T07:53:32.360Z,45.84
2016-05-29T07:54:32.238Z,45.94
2016-05-29T07:55:32.413Z,45.65
2016-05-29T07:56:32.447Z,45.36
2016-05-29T07:57:32.465Z,45.36
2016-05-29T07:58:32.499Z,45.68
2016-05-29T07:59:32.517Z,45.46
2016-05-29T08:00:32.551Z,45.48
2016-05-29T08:01:32.586Z,45.65
2016-05-29T08:02:32.620Z,45.58
2016-05-29T08:03:32.637Z,45.68
2016-05-29T08:04:32.655Z,45.56
2016-05-29T08:05:32.533Z,45.1
2016-05-29T08:06:33.005Z,45.1
2016-05-29T08:07:32.742Z,45.2
2016-05-29T08:08:32.775Z,45.29
2016-05-29T08:09:32.794Z,45.1
2016-05-29T08:10:32.828Z,45.39
2016-05-29T08:11:32.847Z,45.39
2016-05-29T08:12:32.896Z,45.2
2016-05-29T08:13:32.914Z,45.1
2016-05-29T08:14:32.932Z,45.1
2016-05-29T08:15:32.952Z,45.48
2016-05-29T08:16:32.985Z,45.29
2016-05-29T08:17:33.018Z,45.29
2016-05-29T08:18:33.038Z,45.29
2016-05-29T08:19:33.071Z,45.2
2016-05-29T08:20:33.590Z,45.2
2016-05-29T08:21:33.576Z,45.39
2016-05-29T08:22:33.143Z,45.48
2016-05-29T08:23:33.035Z,45.29
2016-05-29T08:24:33.210Z,45.68
2016-05-29T08:25:33.228Z,45.56
2016-05-29T08:26:33.262Z,45
2016-05-29T08:27:33.162Z,45.1
2016-05-29T08:28:33.359Z,45.2
2016-05-29T08:29:33.399Z,45.1
2016-05-29T08:30:33.455Z,45.1
2016-05-29T08:31:33.512Z,45.1
2016-05-29T08:32:33.538Z,45.29
2016-05-29T08:33:33.580Z,45.2
2016-05-29T08:34:33.606Z,45.2
2016-05-29T08:35:33.649Z,45.29
2016-05-29T08:36:34.441Z,45.29
2016-05-29T08:37:33.727Z,45.48
2016-05-29T08:38:33.749Z,45.39
2016-05-29T08:39:33.770Z,45.2
2016-05-29T08:40:33.808Z,45.48
2016-05-29T08:41:33.828Z,45.48
2016-05-29T08:42:33.864Z,45
2016-05-29T08:43:33.726Z,45
2016-05-29T08:44:33.917Z,45.29
2016-05-29T08:45:33.952Z,45.48
2016-05-29T08:46:33.970Z,45.48
2016-05-29T08:47:34.005Z,45.58
2016-05-29T08:48:34.024Z,45.48
2016-05-29T08:49:34.058Z,45.29
2016-05-29T08:50:33.952Z,45.39
2016-05-29T08:51:34.111Z,45.2
2016-05-29T08:52:34.130Z,45.29
2016-05-29T08:53:34.164Z,45.39
2016-05-29T08:54:34.198Z,45.29
2016-05-29T08:55:34.218Z,45.1
2016-05-29T08:56:34.251Z,45.2
2016-05-29T08:57:34.598Z,45.48
2016-05-29T08:58:34.304Z,45.29
2016-05-29T08:59:34.322Z,45.1
2016-05-29T09:00:34.356Z,45
2016-05-29T09:01:34.406Z,44.9
2016-05-29T09:02:35.378Z,44.9
2016-05-29T09:03:34.442Z,44.81
2016-05-29T09:04:34.476Z,44.81
2016-05-29T09:05:34.494Z,44.9
2016-05-29T09:06:34.528Z,44.71
2016-05-29T09:07:34.547Z,44.62
2016-05-29T09:08:34.581Z,44.04
2016-05-29T09:09:34.599Z,44.13
2016-05-29T09:10:34.633Z,44.42
2016-05-29T09:11:34.682Z,44.13
2016-05-29T09:12:37.045Z,44.23
2016-05-29T09:13:34.579Z,44.52
2016-05-29T09:14:34.753Z,44.42
2016-05-29T09:15:34.771Z,44.52
2016-05-29T09:16:34.790Z,43.96
2016-05-29T09:17:35.465Z,43.94
2016-05-29T09:18:34.857Z,43.58
2016-05-29T09:19:34.876Z,43.77
2016-05-29T09:20:34.910Z,43.87
2016-05-29T09:21:34.929Z,43.96
2016-05-29T09:22:38.649Z,43.87
2016-05-29T09:23:34.981Z,43.77
2016-05-29T09:24:34.859Z,43.96
2016-05-29T09:25:35.032Z,43.77
2016-05-29T09:26:34.910Z,43.77
2016-05-29T09:27:35.085Z,43.48
2016-05-29T09:28:35.119Z,43.58
2016-05-29T09:29:35.153Z,43.77
2016-05-29T09:30:35.187Z,43.67
2016-05-29T09:31:35.205Z,43.58
2016-05-29T09:32:37.848Z,43.58
2016-05-29T09:33:35.273Z,43.77
2016-05-29T09:34:35.120Z,43.77
2016-05-29T09:35:35.325Z,43.77
2016-05-29T09:36:35.344Z,43.67
2016-05-29T09:37:37.456Z,43.67
2016-05-29T09:38:35.396Z,43.67
2016-05-29T09:39:35.430Z,43.87
2016-05-29T09:40:35.463Z,43.67
2016-05-29T09:41:35.482Z,43.67
2016-05-29T09:42:38.563Z,43.67
2016-05-29T09:43:35.535Z,43.87
2016-05-29T09:44:35.552Z,43.67
2016-05-29T09:45:35.586Z,43.67
2016-05-29T09:46:35.621Z,43.58
2016-05-29T09:47:35.639Z,43.38
2016-05-29T09:48:35.688Z,43.77
2016-05-29T09:49:35.707Z,43.29
2016-05-29T09:50:35.725Z,43.67
2016-05-29T09:51:35.790Z,43.29
2016-05-29T09:52:35.637Z,42.9
2016-05-29T09:53:35.811Z,43.48
2016-05-29T09:54:35.674Z,43.67
2016-05-29T09:55:35.863Z,43.67
2016-05-29T09:56:35.898Z,43.48
2016-05-29T09:57:35.931Z,43.58
2016-05-29T09:58:35.934Z,43.77
2016-05-29T09:59:38.984Z,43.77
2016-05-29T10:00:36.001Z,43.87
2016-05-29T10:01:35.865Z,43.77
2016-05-29T10:02:36.054Z,43.67
2016-05-29T10:03:36.073Z,43.77
2016-05-29T10:04:36.106Z,43.48
2016-05-29T10:05:36.186Z,43.58
2016-05-29T10:06:36.268Z,43.77
2016-05-29T10:07:36.036Z,43.77
2016-05-29T10:08:36.211Z,43.77
2016-05-29T10:09:36.244Z,43.87
2016-05-29T10:10:36.264Z,43.77
2016-05-29T10:11:36.297Z,43.38
2016-05-29T10:12:36.331Z,43.96
2016-05-29T10:13:36.349Z,43.96
2016-05-29T10:14:36.524Z,43.87
2016-05-29T10:15:36.402Z,43.58
2016-05-29T10:16:36.279Z,43.58
2016-05-29T10:17:36.454Z,43.67
2016-05-29T10:18:36.487Z,43.77
2016-05-29T10:19:36.366Z,43.67
2016-05-29T10:20:36.571Z,43.75
2016-05-29T10:21:36.574Z,43.58
2016-05-29T10:22:36.592Z,43.75
2016-05-29T10:23:36.627Z,43.77
2016-05-29T10:24:36.660Z,43.77
2016-05-29T10:25:36.678Z,43.67
2016-05-29T10:26:36.713Z,43.77
2016-05-29T10:27:36.731Z,43.58
2016-05-29T10:28:36.765Z,43.58
2016-05-29T10:29:36.783Z,43.58
2016-05-29T10:30:36.817Z,43.77
2016-05-29T10:31:36.851Z,43.77
2016-05-29T10:32:36.869Z,43.77
2016-05-29T10:33:36.903Z,43.67
2016-05-29T10:34:36.922Z,43.87
2016-05-29T10:35:37.018Z,43.58
2016-05-29T10:36:37.067Z,43.67
2016-05-29T10:37:37.008Z,43.58
2016-05-29T10:38:37.057Z,43.67
2016-05-29T10:39:37.060Z,43.29
2016-05-29T10:40:37.094Z,43.67
2016-05-29T10:41:37.112Z,43.29
2016-05-29T10:42:37.146Z,43.29
2016-05-29T10:43:37.164Z,43.38
2016-05-29T10:44:37.199Z,43.29
2016-05-29T10:45:37.232Z,43.38
2016-05-29T10:46:37.094Z,43.48
2016-05-29T10:47:37.285Z,43.38
2016-05-29T10:48:37.319Z,43.38
2016-05-29T10:49:37.337Z,43.48
2016-05-29T10:50:37.621Z,43.1
2016-05-29T10:51:37.389Z,43.1
2016-05-29T10:52:37.407Z,43.1
2016-05-29T10:53:37.285Z,43.38
2016-05-29T10:54:37.476Z,43.38
2016-05-29T10:55:37.509Z,43.19
2016-05-29T10:56:37.527Z,43.38
2016-05-29T10:57:37.405Z,43.38
2016-05-29T10:58:37.579Z,43.29
2016-05-29T10:59:37.614Z,43.19
2016-05-29T11:00:37.648Z,43.29
2016-05-29T11:01:37.666Z,43.19
2016-05-29T11:02:37.700Z,43.48
2016-05-29T11:03:37.718Z,43.58
2016-05-29T11:04:37.581Z,43
2016-05-29T11:05:37.786Z,43
2016-05-29T11:06:37.789Z,42.9
2016-05-29T11:07:37.839Z,43.1
2016-05-29T11:08:37.856Z,43.1
2016-05-29T11:09:37.891Z,43.1
2016-05-29T11:10:37.909Z,43
2016-05-29T11:11:37.942Z,43
2016-05-29T11:12:38.008Z,43
2016-05-29T11:13:37.995Z,43
2016-05-29T11:14:38.044Z,43
2016-05-29T11:15:38.047Z,43
2016-05-29T11:16:38.143Z,43
2016-05-29T11:17:38.099Z,43.29
2016-05-29T11:18:38.133Z,43.29
2016-05-29T11:19:38.152Z,43.29
2016-05-29T11:20:38.185Z,43.29
2016-05-29T11:21:38.735Z,43.19
2016-05-29T11:22:38.238Z,43.19
2016-05-29T11:23:38.272Z,43.29
2016-05-29T11:24:38.290Z,43.29
2016-05-29T11:25:38.324Z,42.61
2016-05-29T11:26:38.357Z,42.42
2016-05-29T11:27:38.377Z,42.52
2016-05-29T11:28:38.410Z,42.52
2016-05-29T11:29:38.428Z,42.61
2016-05-29T11:30:38.463Z,42.52
2016-05-29T11:31:38.496Z,42.61
2016-05-29T11:32:38.515Z,42.52
2016-05-29T11:33:38.548Z,42.71
2016-05-29T11:34:38.567Z,42.61
2016-05-29T11:35:38.820Z,42.52
2016-05-29T11:36:38.729Z,42.71
2016-05-29T11:37:38.497Z,42.8
2016-05-29T11:38:38.531Z,43.29
2016-05-29T11:39:38.705Z,42.8
2016-05-29T11:40:38.725Z,43.29
2016-05-29T11:41:38.773Z,42.9
2016-05-29T11:42:38.636Z,43.29
2016-05-29T11:43:38.825Z,43.29
2016-05-29T11:44:38.844Z,43.1
2016-05-29T11:45:38.878Z,43.38
2016-05-29T11:46:38.896Z,43
2016-05-29T11:47:38.774Z,43.1
2016-05-29T11:48:38.949Z,42.71
2016-05-29T11:49:38.982Z,42.9
2016-05-29T11:50:39.891Z,43.19
2016-05-29T11:51:39.222Z,43.38
2016-05-29T11:52:39.068Z,43.38
2016-05-29T11:53:39.087Z,43
2016-05-29T11:54:38.965Z,43.29
2016-05-29T11:55:38.983Z,43.38
2016-05-29T11:56:39.173Z,43.38
2016-05-29T11:57:39.191Z,43.58
2016-05-29T11:58:39.226Z,43.48
2016-05-29T11:59:39.259Z,43.38
2016-05-29T12:00:39.278Z,43.75
2016-05-29T12:01:39.312Z,43.75
2016-05-29T12:02:39.329Z,43.46
2016-05-29T12:03:39.364Z,43.75
2016-05-29T12:04:39.398Z,43.85
2016-05-29T12:05:39.448Z,44.04
2016-05-29T12:06:39.575Z,43.85
2016-05-29T12:07:39.468Z,43.65
2016-05-29T12:08:39.346Z,43.65
2016-05-29T12:09:39.536Z,43.75
2016-05-29T12:10:39.555Z,43.75
2016-05-29T12:11:39.589Z,43.85
2016-05-29T12:12:39.606Z,44.32
2016-05-29T12:13:39.641Z,44.52
2016-05-29T12:14:39.675Z,44.13
2016-05-29T12:15:39.694Z,44.32
2016-05-29T12:16:39.727Z,44.62
2016-05-29T12:17:39.589Z,44.71
2016-05-29T12:18:39.794Z,44.71
2016-05-29T12:19:39.797Z,44.71
2016-05-29T12:20:40.660Z,44.32
2016-05-29T12:21:40.085Z,44.81
2016-05-29T12:22:39.883Z,44.9
2016-05-29T12:23:39.918Z,45.1
2016-05-29T12:24:39.779Z,44.9
2016-05-29T12:25:39.971Z,45.39
2016-05-29T12:26:39.988Z,45.27
2016-05-29T12:27:40.021Z,45.46
2016-05-29T12:28:40.040Z,45.36
2016-05-29T12:29:40.074Z,45.29
2016-05-29T12:30:40.093Z,45.36
2016-05-29T12:31:40.127Z,45.07
2016-05-29T12:32:40.145Z,44.98
2016-05-29T12:33:40.178Z,45.46
2016-05-29T12:34:40.212Z,45.46
2016-05-29T12:35:40.904Z,45.75
2016-05-29T12:36:40.265Z,45.56
2016-05-29T12:37:40.284Z,45.75
2016-05-29T12:38:40.317Z,45.46
2016-05-29T12:39:40.351Z,45.36
2016-05-29T12:40:40.369Z,45.46
2016-05-29T12:41:40.404Z,45.94
2016-05-29T12:42:40.422Z,45.84
2016-05-29T12:43:40.455Z,45.84
2016-05-29T12:44:40.489Z,45.94
2016-05-29T12:45:40.508Z,45.84
2016-05-29T12:46:40.527Z,45.94
2016-05-29T12:47:40.560Z,46.14
2016-05-29T12:48:40.594Z,46.04
2016-05-29T12:49:40.613Z,46.42
2016-05-29T12:50:40.647Z,46.04
2016-05-29T12:51:40.680Z,45.65
2016-05-29T12:52:40.699Z,46.14
2016-05-29T12:53:40.716Z,46.52
2016-05-29T12:54:40.752Z,46.14
2016-05-29T12:55:40.785Z,46.14
2016-05-29T12:56:40.804Z,46.04
2016-05-29T12:57:40.837Z,46.33